Time;durP1;ratioP1;P1;durP2;ratioP2;P2;SDS_P1;SDS_P2;PMS_P1;PMS_P2;Temp;Humidity;BMP_temperature;BMP_pressure;BME280_temperature;BME280_humidity;BME280_pressure;Samples;Min_cycle;Max_cycle;Signal;HPM_P1;HPM_P2
2021/12/28 00:01:06;;;;;;;51.40;22.05;;;;;;;;;;5150218;27;20404;-71
2021/12/28 00:03:34;;;;;;;53.63;22.52;;;;;;;;;;5135548;27;20059;-70
2021/12/28 00:06:00;;;;;;;63.15;23.13;;;;;;;;;;5133582;27;20047;-70
2021/12/28 00:08:27;;;;;;;46.40;22.60;;;;;;;;;;5134045;27;20842;-71
2021/12/28 00:10:55;;;;;;;45.30;21.95;;;;;;;;;;5147435;27;20118;-72
2021/12/28 00:13:22;;;;;;;55.22;24.52;;;;;;;;;;5151782;27;20061;-71
2021/12/28 00:15:49;;;;;;;61.60;23.20;;;;;;;;;;5135178;27;20527;-70
2021/12/28 00:18:16;;;;;;;47.10;23.48;;;;;;;;;;5133696;27;20056;-71
2021/12/28 00:20:44;;;;;;;51.92;24.38;;;;;;;;;;5135369;27;20055;-70
2021/12/28 00:23:17;;;;;;;58.75;23.08;;;;;;;;;;5135383;27;20529;-69
2021/12/28 00:25:44;;;;;;;59.45;23.10;;;;;;;;;;5135303;27;20047;-70
2021/12/28 00:28:11;;;;;;;56.47;23.58;;;;;;;;;;5133372;27;20051;-69
2021/12/28 00:30:37;;;;;;;53.05;21.98;;;;;;;;;;5134054;27;20052;-70
2021/12/28 00:33:04;;;;;;;44.50;22.23;;;;;;;;;;5133392;27;20058;-69
2021/12/28 00:35:32;;;;;;;55.38;22.13;;;;;;;;;;5134593;27;20414;-70
2021/12/28 00:37:58;;;;;;;48.35;22.20;;;;;;;;;;5133863;27;20495;-70
2021/12/28 00:40:25;;;;;;;54.78;22.42;;;;;;;;;;5133564;27;20499;-70
2021/12/28 00:42:51;;;;;;;50.58;21.17;;;;;;;;;;5133287;27;20048;-69
2021/12/28 00:45:18;;;;;;;47.88;20.98;;;;;;;;;;5132998;27;20066;-70
2021/12/28 00:47:44;;;;;;;47.38;21.73;;;;;;;;;;5133240;27;20056;-69
2021/12/28 00:50:11;;;;;;;51.83;21.65;;;;;;;;;;5133182;27;20051;-69
2021/12/28 00:52:38;;;;;;;43.97;19.92;;;;;;;;;;5132018;27;20452;-69
2021/12/28 00:55:04;;;;;;;51.10;20.23;;;;;;;;;;5141969;27;20610;-69
2021/12/28 00:57:31;;;;;;;42.78;19.88;;;;;;;;;;5153928;27;20051;-69
2021/12/28 00:59:57;;;;;;;48.42;19.48;;;;;;;;;;5138647;27;20058;-69
2021/12/28 01:02:23;;;;;;;37.45;16.73;;;;;;;;;;5132811;27;20496;-70
2021/12/28 01:04:50;;;;;;;39.20;18.25;;;;;;;;;;5129833;27;20063;-68
2021/12/28 01:07:16;;;;;;;41.47;19.00;;;;;;;;;;5134598;27;20062;-69
2021/12/28 01:09:44;;;;;;;34.15;18.40;;;;;;;;;;5134588;27;20048;-69
2021/12/28 01:12:11;;;;;;;51.53;18.13;;;;;;;;;;5133694;27;20142;-70
2021/12/28 01:14:37;;;;;;;42.17;16.73;;;;;;;;;;5145595;27;20062;-69
2021/12/28 01:17:05;;;;;;;37.25;15.55;;;;;;;;;;5134991;27;20487;-69
2021/12/28 01:19:31;;;;;;;36.47;15.77;;;;;;;;;;5135298;27;20059;-70
2021/12/28 01:21:57;;;;;;;36.00;16.02;;;;;;;;;;5134691;27;20047;-70
2021/12/28 01:24:24;;;;;;;41.53;14.88;;;;;;;;;;5134455;27;20067;-70
2021/12/28 01:26:50;;;;;;;39.20;14.98;;;;;;;;;;5134605;27;20055;-70
2021/12/28 01:29:16;;;;;;;37.60;14.48;;;;;;;;;;5134449;27;20522;-70
2021/12/28 01:31:43;;;;;;;33.95;14.50;;;;;;;;;;5134183;27;20105;-70
2021/12/28 01:34:09;;;;;;;46.90;14.13;;;;;;;;;;5134029;27;20052;-69
2021/12/28 01:36:36;;;;;;;37.55;13.35;;;;;;;;;;5135537;27;20054;-69
2021/12/28 01:39:04;;;;;;;32.08;13.73;;;;;;;;;;5134084;27;20051;-70
2021/12/28 01:41:31;;;;;;;32.33;11.98;;;;;;;;;;5134557;27;20439;-70
2021/12/28 01:43:59;;;;;;;29.23;12.65;;;;;;;;;;5133859;27;20117;-70
2021/12/28 01:46:25;;;;;;;37.53;13.23;;;;;;;;;;5133914;27;20052;-70
2021/12/28 01:48:51;;;;;;;38.28;12.15;;;;;;;;;;5134340;27;20051;-71
2021/12/28 01:51:19;;;;;;;28.60;13.32;;;;;;;;;;5133828;27;20047;-70
2021/12/28 01:53:47;;;;;;;29.02;11.10;;;;;;;;;;5119115;27;20052;-70
2021/12/28 01:56:15;;;;;;;25.63;11.80;;;;;;;;;;5134228;27;20533;-70
2021/12/28 01:58:41;;;;;;;26.08;10.40;;;;;;;;;;5134721;27;20055;-71
2021/12/28 02:01:08;;;;;;;36.63;10.98;;;;;;;;;;5133575;27;20142;-71
2021/12/28 02:03:35;;;;;;;33.40;10.43;;;;;;;;;;5133541;27;20138;-71
2021/12/28 02:06:02;;;;;;;35.88;10.75;;;;;;;;;;5134126;27;20056;-71
2021/12/28 02:08:29;;;;;;;30.23;11.00;;;;;;;;;;5134227;27;20051;-70
2021/12/28 02:10:55;;;;;;;32.60;10.60;;;;;;;;;;5150929;27;20082;-70
2021/12/28 02:13:22;;;;;;;26.48;9.90;;;;;;;;;;5142055;27;20479;-70
2021/12/28 02:15:49;;;;;;;29.35;10.07;;;;;;;;;;5134928;27;20048;-70
2021/12/28 02:18:18;;;;;;;38.13;10.65;;;;;;;;;;5115915;27;20087;-70
2021/12/28 02:20:45;;;;;;;29.80;10.52;;;;;;;;;;5133883;27;20514;-70
2021/12/28 02:23:11;;;;;;;31.50;9.55;;;;;;;;;;5134527;27;20052;-70
2021/12/28 02:25:38;;;;;;;28.40;9.57;;;;;;;;;;5137610;27;20575;-71
2021/12/28 02:28:05;;;;;;;26.48;9.40;;;;;;;;;;5137468;27;20102;-72
2021/12/28 02:30:32;;;;;;;28.10;10.55;;;;;;;;;;5151572;27;20055;-71
2021/12/28 02:32:59;;;;;;;36.53;11.45;;;;;;;;;;5137599;27;20052;-71
2021/12/28 02:35:26;;;;;;;34.67;9.73;;;;;;;;;;5137010;27;20048;-70
2021/12/28 02:37:52;;;;;;;33.80;10.93;;;;;;;;;;5137628;27;20051;-71
2021/12/28 02:40:20;;;;;;;26.63;9.25;;;;;;;;;;5137604;27;20066;-71
2021/12/28 02:42:51;;;;;;;24.17;9.27;;;;;;;;;;5136848;27;20056;-71
2021/12/28 02:45:37;;;;;;;40.85;9.63;;;;;;;;;;5137518;27;20055;-71
2021/12/28 02:48:05;;;;;;;30.77;9.00;;;;;;;;;;5137125;27;20075;-70
2021/12/28 02:50:36;;;;;;;29.35;9.40;;;;;;;;;;5137445;27;20484;-70
2021/12/28 02:53:02;;;;;;;33.28;9.35;;;;;;;;;;5137426;27;20056;-70
2021/12/28 02:55:31;;;;;;;26.27;9.50;;;;;;;;;;5141384;27;20054;-71
2021/12/28 02:57:58;;;;;;;27.85;8.32;;;;;;;;;;5136826;27;20056;-70
2021/12/28 03:00:34;;;;;;;27.70;9.23;;;;;;;;;;5137371;27;20047;-70
2021/12/28 03:03:04;;;;;;;41.55;9.82;;;;;;;;;;5137249;27;20097;-70
2021/12/28 03:05:31;;;;;;;30.13;8.50;;;;;;;;;;5148649;27;20415;-69
2021/12/28 03:07:57;;;;;;;30.55;7.55;;;;;;;;;;5153736;27;20050;-69
2021/12/28 03:10:24;;;;;;;36.83;9.18;;;;;;;;;;5137221;27;20055;-71
2021/12/28 03:12:50;;;;;;;30.45;8.80;;;;;;;;;;5136801;27;20063;-72
2021/12/28 03:15:16;;;;;;;29.58;7.85;;;;;;;;;;5136871;27;20044;-71
2021/12/28 03:17:43;;;;;;;30.95;7.97;;;;;;;;;;5136960;27;20059;-71
2021/12/28 03:20:13;;;;;;;30.15;7.82;;;;;;;;;;5136721;27;20261;-70
2021/12/28 03:22:39;;;;;;;27.42;8.95;;;;;;;;;;5137652;27;20056;-70
2021/12/28 03:25:07;;;;;;;29.30;9.50;;;;;;;;;;5136611;27;20059;-71
2021/12/28 03:27:33;;;;;;;29.80;7.70;;;;;;;;;;5136550;27;20054;-70
2021/12/28 03:29:59;;;;;;;27.95;7.70;;;;;;;;;;5136728;27;20051;-71
2021/12/28 03:32:26;;;;;;;34.67;8.35;;;;;;;;;;5136093;27;20056;-71
2021/12/28 03:34:52;;;;;;;33.75;8.75;;;;;;;;;;5135618;27;20537;-72
2021/12/28 03:37:19;;;;;;;27.02;8.80;;;;;;;;;;5136308;27;20134;-71
2021/12/28 03:39:45;;;;;;;33.42;8.52;;;;;;;;;;5136437;27;20063;-71
2021/12/28 03:42:11;;;;;;;34.80;8.70;;;;;;;;;;5136301;27;20052;-71
2021/12/28 03:44:37;;;;;;;35.58;8.50;;;;;;;;;;5137456;27;20056;-71
2021/12/28 03:47:04;;;;;;;24.42;7.90;;;;;;;;;;5151726;27;20060;-71
2021/12/28 03:49:30;;;;;;;32.67;8.02;;;;;;;;;;5136969;27;20498;-70
2021/12/28 03:51:57;;;;;;;27.58;7.47;;;;;;;;;;5136298;27;20139;-71
2021/12/28 03:54:27;;;;;;;30.55;9.05;;;;;;;;;;5136368;27;20052;-71
2021/12/28 03:56:53;;;;;;;30.55;7.43;;;;;;;;;;5136217;27;20415;-72
2021/12/28 03:59:20;;;;;;;28.33;7.82;;;;;;;;;;5136179;27;20055;-71
2021/12/28 04:01:46;;;;;;;22.70;7.47;;;;;;;;;;5139057;27;20055;-70
2021/12/28 04:04:13;;;;;;;34.35;7.93;;;;;;;;;;5140022;27;20051;-70
2021/12/28 04:06:39;;;;;;;30.77;7.65;;;;;;;;;;5136317;27;20054;-70
2021/12/28 04:09:07;;;;;;;32.03;10.15;;;;;;;;;;5143172;27;20093;-70
2021/12/28 04:11:33;;;;;;;35.92;7.13;;;;;;;;;;5136312;27;20055;-70
2021/12/28 04:14:02;;;;;;;32.58;7.85;;;;;;;;;;5117805;27;20044;-70
2021/12/28 04:16:29;;;;;;;24.67;7.15;;;;;;;;;;5135653;27;20055;-70
2021/12/28 04:18:56;;;;;;;36.90;7.35;;;;;;;;;;5135578;27;20142;-71
2021/12/28 04:21:23;;;;;;;31.42;6.93;;;;;;;;;;5135797;27;20050;-70
2021/12/28 04:23:50;;;;;;;23.20;7.15;;;;;;;;;;5135571;27;20466;-71
2021/12/28 04:26:16;;;;;;;32.67;6.93;;;;;;;;;;5135981;27;20503;-70
2021/12/28 04:28:43;;;;;;;33.70;6.72;;;;;;;;;;5135528;27;20074;-70
2021/12/28 04:31:10;;;;;;;28.27;7.07;;;;;;;;;;5136114;27;20073;-71
2021/12/28 04:33:37;;;;;;;35.13;7.10;;;;;;;;;;5140184;27;20495;-72
2021/12/28 04:36:08;;;;;;;22.77;5.95;;;;;;;;;;5135559;27;20051;-71
2021/12/28 04:38:34;;;;;;;36.78;6.45;;;;;;;;;;5135497;27;20058;-71
2021/12/28 04:41:01;;;;;;;33.60;6.75;;;;;;;;;;5135720;27;20048;-72
2021/12/28 04:43:27;;;;;;;21.00;6.22;;;;;;;;;;5144749;27;20051;-70
2021/12/28 04:45:54;;;;;;;35.38;8.93;;;;;;;;;;5134120;27;20052;-70
2021/12/28 04:48:20;;;;;;;24.88;6.63;;;;;;;;;;5135115;27;20495;-70
2021/12/28 04:50:46;;;;;;;28.05;6.60;;;;;;;;;;5135739;27;20051;-70
2021/12/28 04:53:13;;;;;;;31.45;6.85;;;;;;;;;;5135352;27;20051;-70
2021/12/28 04:55:43;;;;;;;23.42;6.15;;;;;;;;;;5134985;27;20052;-70
2021/12/28 04:58:09;;;;;;;26.13;5.65;;;;;;;;;;5139774;27;20056;-69
2021/12/28 05:00:36;;;;;;;26.33;6.15;;;;;;;;;;5134995;27;20511;-70
2021/12/28 05:03:03;;;;;;;34.63;6.90;;;;;;;;;;5140677;27;20759;-71
2021/12/28 05:05:29;;;;;;;32.67;7.57;;;;;;;;;;5134994;27;20048;-70
2021/12/28 05:07:56;;;;;;;28.55;6.88;;;;;;;;;;5134859;27;20048;-70
2021/12/28 05:10:22;;;;;;;31.88;6.43;;;;;;;;;;5136050;27;20062;-70
2021/12/28 05:12:51;;;;;;;20.10;5.50;;;;;;;;;;5139543;27;20063;-70
2021/12/28 05:15:18;;;;;;;27.58;6.47;;;;;;;;;;5133801;27;20419;-70
2021/12/28 05:17:44;;;;;;;21.95;5.50;;;;;;;;;;5134704;27;20075;-70
2021/12/28 05:20:11;;;;;;;21.88;6.13;;;;;;;;;;5134630;27;20044;-70
2021/12/28 05:22:37;;;;;;;20.23;4.95;;;;;;;;;;5135389;27;20055;-69
2021/12/28 05:25:04;;;;;;;24.98;8.13;;;;;;;;;;5134882;27;20051;-70
2021/12/28 05:27:31;;;;;;;21.58;5.40;;;;;;;;;;5134885;27;20052;-71
2021/12/28 05:29:57;;;;;;;22.58;5.68;;;;;;;;;;5133670;27;20506;-69
2021/12/28 05:32:23;;;;;;;24.63;6.57;;;;;;;;;;5134853;27;20066;-72
2021/12/28 05:34:49;;;;;;;20.70;5.15;;;;;;;;;;5134680;27;20614;-72
2021/12/28 05:37:16;;;;;;;18.30;5.57;;;;;;;;;;5134006;27;20052;-69
2021/12/28 05:39:42;;;;;;;21.13;5.22;;;;;;;;;;5135886;27;20403;-70
2021/12/28 05:42:09;;;;;;;32.85;6.18;;;;;;;;;;5138911;27;20055;-70
2021/12/28 05:44:35;;;;;;;26.70;5.47;;;;;;;;;;5134443;27;20055;-71
2021/12/28 05:47:01;;;;;;;20.25;5.00;;;;;;;;;;5136828;27;20055;-70
2021/12/28 05:49:27;;;;;;;18.20;5.70;;;;;;;;;;5134477;27;20058;-71
2021/12/28 05:51:54;;;;;;;26.33;5.35;;;;;;;;;;5134567;27;20074;-72
2021/12/28 05:54:20;;;;;;;21.73;6.35;;;;;;;;;;5135442;27;20040;-71
2021/12/28 05:56:46;;;;;;;21.98;5.13;;;;;;;;;;5132489;27;20055;-71
2021/12/28 05:59:13;;;;;;;18.83;5.20;;;;;;;;;;5127888;27;20126;-72
2021/12/28 06:01:40;;;;;;;26.27;5.50;;;;;;;;;;5131292;27;20056;-72
2021/12/28 06:04:07;;;;;;;27.05;5.97;;;;;;;;;;5132527;27;20062;-72
2021/12/28 06:06:34;;;;;;;20.38;5.20;;;;;;;;;;5127264;27;20147;-72
2021/12/28 06:09:00;;;;;;;26.15;5.38;;;;;;;;;;5133820;27;20058;-71
2021/12/28 06:11:26;;;;;;;24.50;5.03;;;;;;;;;;5134312;27;20058;-72
2021/12/28 06:13:53;;;;;;;21.10;5.13;;;;;;;;;;5133672;27;20052;-71
2021/12/28 06:16:24;;;;;;;20.45;4.13;;;;;;;;;;5134022;27;20074;-72
2021/12/28 06:18:50;;;;;;;20.75;5.00;;;;;;;;;;5134253;27;20085;-72
2021/12/28 06:21:17;;;;;;;18.23;4.07;;;;;;;;;;5133475;27;20047;-72
2021/12/28 06:23:43;;;;;;;18.88;5.05;;;;;;;;;;5133163;27;20062;-72
2021/12/28 06:26:09;;;;;;;25.42;5.22;;;;;;;;;;5133439;27;20044;-72
2021/12/28 06:28:35;;;;;;;21.92;5.03;;;;;;;;;;5133611;27;20085;-73
2021/12/28 06:31:02;;;;;;;22.23;4.82;;;;;;;;;;5133458;27;20493;-74
2021/12/28 06:33:28;;;;;;;24.58;4.90;;;;;;;;;;5133070;27;20047;-72
2021/12/28 06:35:55;;;;;;;19.88;4.43;;;;;;;;;;5133519;27;20526;-72
2021/12/28 06:38:21;;;;;;;24.05;4.68;;;;;;;;;;5133266;27;20062;-72
2021/12/28 06:40:48;;;;;;;19.02;4.72;;;;;;;;;;5133092;27;20056;-70
2021/12/28 06:43:15;;;;;;;16.83;4.80;;;;;;;;;;5132933;27;20048;-70
2021/12/28 06:45:41;;;;;;;20.67;4.60;;;;;;;;;;5132890;27;20500;-70
2021/12/28 06:48:08;;;;;;;16.60;4.40;;;;;;;;;;5133825;27;20149;-72
2021/12/28 06:50:35;;;;;;;19.60;4.40;;;;;;;;;;5133540;27;20055;-72
2021/12/28 06:53:01;;;;;;;22.10;4.63;;;;;;;;;;5133678;27;20659;-72
2021/12/28 06:55:27;;;;;;;22.75;4.72;;;;;;;;;;5132891;27;20055;-71
2021/12/28 06:57:54;;;;;;;16.15;4.38;;;;;;;;;;5130705;27;20058;-71
2021/12/28 07:00:20;;;;;;;18.85;4.43;;;;;;;;;;5132294;27;20134;-72
2021/12/28 07:02:46;;;;;;;15.80;3.67;;;;;;;;;;5131113;27;20063;-70
2021/12/28 07:05:13;;;;;;;19.05;4.65;;;;;;;;;;5133698;27;20054;-71
2021/12/28 07:07:40;;;;;;;17.50;4.15;;;;;;;;;;5133544;27;20058;-71
2021/12/28 07:10:07;;;;;;;11.55;3.50;;;;;;;;;;5135622;27;20143;-72
2021/12/28 07:12:33;;;;;;;22.98;4.40;;;;;;;;;;5135695;27;20550;-71
2021/12/28 07:14:59;;;;;;;15.23;4.10;;;;;;;;;;5135846;27;20047;-71
2021/12/28 07:17:28;;;;;;;15.65;4.32;;;;;;;;;;5134636;27;20872;-71
2021/12/28 07:19:55;;;;;;;16.60;3.47;;;;;;;;;;5134978;27;20044;-70
2021/12/28 07:22:21;;;;;;;15.98;4.15;;;;;;;;;;5133851;27;20427;-70
2021/12/28 07:24:47;;;;;;;21.30;4.47;;;;;;;;;;5134036;27;20052;-70
2021/12/28 07:27:14;;;;;;;19.23;5.20;;;;;;;;;;5134697;27;20056;-71
2021/12/28 07:29:40;;;;;;;15.80;4.00;;;;;;;;;;5132562;27;21234;-71
2021/12/28 07:32:08;;;;;;;20.80;4.90;;;;;;;;;;5116247;28;20504;-71
2021/12/28 07:34:35;;;;;;;14.43;4.05;;;;;;;;;;5126462;27;20143;-70
2021/12/28 07:37:02;;;;;;;15.23;4.30;;;;;;;;;;5137138;27;20052;-71
2021/12/28 07:39:28;;;;;;;17.70;4.93;;;;;;;;;;5136428;27;20048;-71
2021/12/28 07:41:54;;;;;;;19.80;4.78;;;;;;;;;;5125641;27;20055;-72
2021/12/28 07:44:22;;;;;;;11.50;4.20;;;;;;;;;;5123545;27;20996;-70
2021/12/28 07:46:48;;;;;;;16.52;4.43;;;;;;;;;;5115183;27;20044;-70
2021/12/28 07:49:15;;;;;;;18.77;5.05;;;;;;;;;;5135904;27;20071;-71
2021/12/28 07:51:44;;;;;;;10.73;4.63;;;;;;;;;;5136395;27;20187;-71
2021/12/28 07:54:11;;;;;;;14.70;4.68;;;;;;;;;;5117783;27;20142;-70
2021/12/28 07:56:37;;;;;;;19.85;5.10;;;;;;;;;;5142250;27;20048;-70
2021/12/28 07:59:04;;;;;;;15.40;4.85;;;;;;;;;;5117773;27;20568;-70
2021/12/28 08:01:31;;;;;;;21.02;5.47;;;;;;;;;;5135533;27;20139;-70
2021/12/28 08:04:00;;;;;;;17.15;5.30;;;;;;;;;;5144139;27;20050;-72
2021/12/28 08:06:27;;;;;;;12.52;5.07;;;;;;;;;;5136589;27;20581;-70
2021/12/28 08:08:54;;;;;;;17.33;5.53;;;;;;;;;;5135972;27;20056;-72
2021/12/28 08:11:22;;;;;;;22.33;7.97;;;;;;;;;;5151303;27;20051;-71
2021/12/28 08:13:49;;;;;;;19.17;5.88;;;;;;;;;;5131328;27;20100;-71
2021/12/28 08:16:15;;;;;;;16.98;5.90;;;;;;;;;;5117022;27;20051;-71
2021/12/28 08:18:44;;;;;;;12.88;5.75;;;;;;;;;;5135140;27;20047;-70
2021/12/28 08:21:37;;;;;;;12.43;5.20;;;;;;;;;;5135361;27;20058;-71
2021/12/28 08:24:03;;;;;;;17.05;6.00;;;;;;;;;;5134527;27;20066;-70
2021/12/28 08:26:33;;;;;;;14.93;6.03;;;;;;;;;;5115773;27;20061;-70
2021/12/28 08:29:00;;;;;;;14.55;6.05;;;;;;;;;;5138089;27;20516;-70
2021/12/28 08:31:26;;;;;;;14.35;5.65;;;;;;;;;;5135626;27;20050;-71
2021/12/28 08:33:53;;;;;;;13.20;6.32;;;;;;;;;;5135726;27;20047;-70
2021/12/28 08:36:19;;;;;;;14.20;6.93;;;;;;;;;;5142940;27;20104;-70
2021/12/28 08:38:45;;;;;;;14.85;6.05;;;;;;;;;;5114685;27;20044;-70
2021/12/28 08:41:12;;;;;;;11.43;5.90;;;;;;;;;;5138728;27;20052;-70
2021/12/28 08:43:45;;;;;;;13.77;6.90;;;;;;;;;;5115026;28;20086;-70
2021/12/28 08:46:11;;;;;;;16.50;6.78;;;;;;;;;;5124581;27;20517;-70
2021/12/28 08:48:38;;;;;;;12.60;6.82;;;;;;;;;;5135798;27;20571;-70
2021/12/28 08:51:04;;;;;;;16.13;5.88;;;;;;;;;;5135518;27;20054;-70
2021/12/28 08:53:31;;;;;;;13.93;7.05;;;;;;;;;;5135735;27;20487;-70
2021/12/28 08:55:57;;;;;;;13.77;5.57;;;;;;;;;;5133569;27;20109;-71
2021/12/28 08:58:24;;;;;;;10.38;6.05;;;;;;;;;;5135119;27;20526;-71
2021/12/28 09:00:50;;;;;;;15.98;6.63;;;;;;;;;;5135129;27;20095;-71
2021/12/28 09:03:17;;;;;;;13.20;6.25;;;;;;;;;;5135478;27;20494;-71
2021/12/28 09:05:43;;;;;;;13.38;6.45;;;;;;;;;;5139271;27;20051;-71
2021/12/28 09:08:16;;;;;;;15.90;6.90;;;;;;;;;;5156041;27;20138;-70
2021/12/28 09:10:45;;;;;;;18.17;6.40;;;;;;;;;;5136840;27;20063;-71
2021/12/28 09:13:14;;;;;;;16.00;7.05;;;;;;;;;;5135189;27;20052;-71
2021/12/28 09:15:41;;;;;;;14.93;6.53;;;;;;;;;;5116716;27;20056;-71
2021/12/28 09:18:08;;;;;;;11.77;6.38;;;;;;;;;;5134765;27;20048;-70
2021/12/28 09:20:34;;;;;;;16.88;6.28;;;;;;;;;;5134961;27;20051;-71
2021/12/28 09:23:05;;;;;;;12.07;6.28;;;;;;;;;;5134686;27;20395;-70
2021/12/28 09:25:32;;;;;;;11.55;5.68;;;;;;;;;;5134150;27;20044;-72
2021/12/28 09:27:58;;;;;;;15.88;6.38;;;;;;;;;;5134762;27;20139;-71
2021/12/28 09:30:24;;;;;;;15.30;6.80;;;;;;;;;;5141269;27;20146;-71
2021/12/28 09:32:51;;;;;;;17.13;7.15;;;;;;;;;;5155422;27;20039;-71
2021/12/28 09:35:18;;;;;;;12.30;6.03;;;;;;;;;;5149008;27;20054;-72
2021/12/28 09:37:44;;;;;;;12.23;6.50;;;;;;;;;;5145148;27;20056;-71
2021/12/28 09:40:13;;;;;;;14.50;7.35;;;;;;;;;;5139564;27;20524;-70
2021/12/28 09:42:39;;;;;;;15.00;7.25;;;;;;;;;;5155677;27;20508;-70
2021/12/28 09:45:06;;;;;;;14.25;7.40;;;;;;;;;;5154240;27;20093;-70
2021/12/28 09:47:33;;;;;;;12.98;7.03;;;;;;;;;;5133874;27;20074;-70
2021/12/28 09:50:03;;;;;;;12.57;6.90;;;;;;;;;;5127820;27;20104;-70
2021/12/28 09:52:30;;;;;;;11.57;6.75;;;;;;;;;;5134547;27;20051;-70
2021/12/28 09:54:56;;;;;;;11.55;7.05;;;;;;;;;;5134480;27;20483;-70
2021/12/28 09:57:22;;;;;;;8.38;5.65;;;;;;;;;;5134230;27;20196;-70
2021/12/28 09:59:49;;;;;;;12.30;6.65;;;;;;;;;;5134386;27;20131;-70
2021/12/28 10:02:16;;;;;;;9.20;6.20;;;;;;;;;;5135464;27;20055;-69
2021/12/28 10:05:00;;;;;;;11.77;6.82;;;;;;;;;;5130462;27;20052;-70
2021/12/28 10:07:28;;;;;;;10.18;5.95;;;;;;;;;;5126469;27;20494;-72
2021/12/28 10:09:55;;;;;;;11.23;6.75;;;;;;;;;;5133835;27;20090;-70
2021/12/28 10:12:26;;;;;;;12.70;7.22;;;;;;;;;;5131062;27;20044;-70
2021/12/28 10:14:56;;;;;;;11.82;7.22;;;;;;;;;;5134056;27;20047;-70
2021/12/28 10:17:24;;;;;;;12.50;7.38;;;;;;;;;;5134860;27;20052;-71
2021/12/28 10:19:50;;;;;;;12.82;7.57;;;;;;;;;;5130235;27;20102;-72
2021/12/28 10:22:21;;;;;;;15.88;8.25;;;;;;;;;;5113986;27;20048;-71
2021/12/28 10:24:52;;;;;;;11.93;7.50;;;;;;;;;;5132924;27;20491;-71
2021/12/28 10:27:20;;;;;;;19.63;9.30;;;;;;;;;;5133676;27;20052;-70
2021/12/28 10:29:46;;;;;;;12.57;7.90;;;;;;;;;;5134225;27;20454;-71
2021/12/28 10:32:24;;;;;;;14.25;8.40;;;;;;;;;;5133622;27;20058;-71
2021/12/28 10:34:51;;;;;;;11.15;7.45;;;;;;;;;;5133941;27;20062;-71
2021/12/28 10:37:20;;;;;;;9.88;7.25;;;;;;;;;;5130981;27;20056;-70
2021/12/28 10:39:48;;;;;;;13.23;7.85;;;;;;;;;;5131901;27;20054;-71
2021/12/28 10:42:34;;;;;;;10.35;7.35;;;;;;;;;;5131725;27;20415;-71
2021/12/28 10:45:00;;;;;;;16.38;7.55;;;;;;;;;;5135730;27;20135;-71
2021/12/28 10:47:31;;;;;;;18.73;8.18;;;;;;;;;;5136931;27;20134;-70
2021/12/28 10:50:01;;;;;;;9.73;6.63;;;;;;;;;;5137447;27;20583;-71
2021/12/28 10:52:37;;;;;;;11.15;7.18;;;;;;;;;;5136845;27;20090;-71
2021/12/28 10:55:18;;;;;;;11.45;6.70;;;;;;;;;;5126438;27;20056;-72
2021/12/28 10:57:44;;;;;;;11.98;7.90;;;;;;;;;;5137511;27;20062;-70
2021/12/28 11:00:22;;;;;;;10.60;6.95;;;;;;;;;;5136942;27;20051;-72
2021/12/28 11:02:48;;;;;;;16.20;8.07;;;;;;;;;;5135360;27;20059;-70
2021/12/28 11:05:30;;;;;;;11.65;7.63;;;;;;;;;;5116417;27;20051;-70
2021/12/28 11:07:57;;;;;;;11.15;6.65;;;;;;;;;;5135112;27;20055;-71
2021/12/28 11:10:28;;;;;;;11.50;7.20;;;;;;;;;;5136648;27;20056;-71
2021/12/28 11:12:55;;;;;;;13.57;6.97;;;;;;;;;;5136702;27;20055;-71
2021/12/28 11:15:22;;;;;;;15.60;8.32;;;;;;;;;;5135150;27;20051;-71
2021/12/28 11:17:49;;;;;;;10.88;7.72;;;;;;;;;;5134003;27;20058;-72
2021/12/28 11:20:15;;;;;;;10.68;6.97;;;;;;;;;;5134448;27;20054;-71
2021/12/28 11:23:01;;;;;;;10.77;7.00;;;;;;;;;;5136380;27;20058;-70
2021/12/28 11:25:30;;;;;;;10.50;6.85;;;;;;;;;;5136306;27;20054;-71
2021/12/28 11:28:10;;;;;;;9.85;6.45;;;;;;;;;;5135882;27;20197;-71
2021/12/28 11:30:37;;;;;;;8.85;6.82;;;;;;;;;;5136371;27;20063;-72
2021/12/28 11:33:07;;;;;;;10.25;6.65;;;;;;;;;;5137795;27;20526;-74
2021/12/28 11:35:33;;;;;;;7.30;5.82;;;;;;;;;;5149522;27;20505;-73
2021/12/28 11:38:00;;;;;;;8.02;5.70;;;;;;;;;;5138968;27;20078;-71
2021/12/28 11:40:28;;;;;;;9.82;5.90;;;;;;;;;;5142847;27;20052;-71
2021/12/28 11:42:54;;;;;;;10.30;6.03;;;;;;;;;;5116149;28;20098;-68
2021/12/28 11:45:21;;;;;;;8.05;6.15;;;;;;;;;;5129518;27;20056;-73
2021/12/28 11:47:47;;;;;;;9.02;5.82;;;;;;;;;;5136281;27;20124;-73
2021/12/28 11:50:13;;;;;;;7.10;5.28;;;;;;;;;;5136328;27;20052;-73
2021/12/28 11:52:40;;;;;;;8.45;5.88;;;;;;;;;;5136524;27;20052;-74
2021/12/28 11:55:08;;;;;;;8.70;5.88;;;;;;;;;;5136180;27;20058;-72
2021/12/28 11:57:34;;;;;;;9.32;6.70;;;;;;;;;;5136428;27;20522;-71
2021/12/28 12:00:06;;;;;;;9.63;5.70;;;;;;;;;;5136479;27;20051;-72
2021/12/28 12:02:43;;;;;;;7.78;5.63;;;;;;;;;;5135763;27;20055;-72
2021/12/28 12:05:13;;;;;;;6.95;4.75;;;;;;;;;;5136152;27;20086;-72
2021/12/28 12:07:40;;;;;;;9.23;4.70;;;;;;;;;;5118356;27;20384;-72
2021/12/28 12:10:08;;;;;;;9.27;5.45;;;;;;;;;;5136065;27;20142;-72
2021/12/28 12:12:42;;;;;;;6.72;4.70;;;;;;;;;;5136152;27;20058;-72
2021/12/28 12:15:14;;;;;;;8.63;4.60;;;;;;;;;;5136109;27;20475;-73
2021/12/28 12:17:42;;;;;;;9.90;5.32;;;;;;;;;;5135804;27;20055;-69
2021/12/28 12:20:22;;;;;;;8.57;4.80;;;;;;;;;;5136164;27;20535;-73
2021/12/28 12:22:55;;;;;;;7.72;5.40;;;;;;;;;;5136079;27;20055;-70
2021/12/28 12:25:32;;;;;;;11.23;4.90;;;;;;;;;;5135887;27;20051;-70
2021/12/28 12:27:59;;;;;;;4.43;3.17;;;;;;;;;;5135682;27;20050;-71
2021/12/28 12:30:27;;;;;;;2.53;2.33;;;;;;;;;;5136537;27;20055;-70
2021/12/28 12:33:05;;;;;;;4.68;2.67;;;;;;;;;;5126697;27;20552;-70
2021/12/28 12:35:36;;;;;;;6.10;1.98;;;;;;;;;;5126443;27;20054;-70
2021/12/28 12:38:03;;;;;;;9.18;1.55;;;;;;;;;;5114682;28;20516;-74
2021/12/28 12:40:48;;;;;;;3.40;1.73;;;;;;;;;;5132551;27;20075;-74
2021/12/28 12:43:15;;;;;;;11.20;2.13;;;;;;;;;;5122954;27;20060;-73
2021/12/28 12:46:01;;;;;;;6.03;1.85;;;;;;;;;;5133531;27;20356;-73
2021/12/28 12:48:31;;;;;;;3.25;1.70;;;;;;;;;;5134987;27;20048;-72
2021/12/28 12:51:16;;;;;;;8.02;1.38;;;;;;;;;;5133550;27;20056;-73
2021/12/28 12:53:43;;;;;;;7.00;3.05;;;;;;;;;;5131738;27;20062;-73
2021/12/28 12:56:11;;;;;;;10.82;2.00;;;;;;;;;;5134295;27;20058;-74
2021/12/28 12:58:38;;;;;;;10.52;2.03;;;;;;;;;;5121613;27;20510;-75
2021/12/28 13:01:17;;;;;;;8.27;1.85;;;;;;;;;;5130704;27;20068;-72
2021/12/28 13:03:44;;;;;;;14.00;2.17;;;;;;;;;;5137424;27;20047;-71
2021/12/28 13:06:10;;;;;;;12.32;2.85;;;;;;;;;;5130993;27;20414;-71
2021/12/28 13:08:37;;;;;;;18.63;2.70;;;;;;;;;;5125925;27;20054;-70
2021/12/28 13:11:03;;;;;;;12.65;2.65;;;;;;;;;;5125813;27;20059;-72
2021/12/28 13:13:29;;;;;;;18.42;2.70;;;;;;;;;;5135177;27;20062;-70
2021/12/28 13:15:55;;;;;;;16.90;2.58;;;;;;;;;;5131613;27;20051;-70
2021/12/28 13:18:34;;;;;;;21.88;4.32;;;;;;;;;;5133436;27;20067;-71
2021/12/28 13:21:08;;;;;;;23.42;3.70;;;;;;;;;;5134595;27;20138;-72
2021/12/28 13:23:36;;;;;;;15.95;2.47;;;;;;;;;;5119958;27;20180;-71
2021/12/28 13:26:03;;;;;;;24.63;3.92;;;;;;;;;;5125062;27;20495;-71
2021/12/28 13:28:29;;;;;;;25.50;4.63;;;;;;;;;;5132994;27;20050;-71
2021/12/28 13:30:55;;;;;;;15.15;3.45;;;;;;;;;;5132065;27;20146;-71
2021/12/28 13:33:23;;;;;;;24.48;4.18;;;;;;;;;;5132111;27;20052;-72
2021/12/28 13:35:53;;;;;;;31.70;5.82;;;;;;;;;;5128117;27;20494;-71
2021/12/28 13:38:20;;;;;;;24.50;4.28;;;;;;;;;;5125835;27;20104;-71
2021/12/28 13:40:51;;;;;;;21.95;4.70;;;;;;;;;;5132764;27;20060;-72
2021/12/28 13:43:19;;;;;;;39.75;5.22;;;;;;;;;;5126682;27;20056;-73
2021/12/28 13:45:57;;;;;;;30.70;5.32;;;;;;;;;;5121615;27;20055;-73
2021/12/28 13:48:30;;;;;;;30.33;5.93;;;;;;;;;;5129803;27;20052;-73
2021/12/28 13:51:08;;;;;;;32.70;4.90;;;;;;;;;;5129292;27;20051;-72
2021/12/28 13:53:37;;;;;;;38.13;6.55;;;;;;;;;;5132955;27;20058;-73
2021/12/28 13:56:05;;;;;;;36.78;5.93;;;;;;;;;;5125203;27;20454;-72
2021/12/28 13:58:36;;;;;;;32.85;7.07;;;;;;;;;;5133960;27;20055;-74
2021/12/28 14:01:06;;;;;;;29.80;5.90;;;;;;;;;;5130749;27;20047;-74
2021/12/28 14:03:32;;;;;;;34.63;5.00;;;;;;;;;;5132545;27;20050;-73
2021/12/28 14:05:59;;;;;;;41.33;8.05;;;;;;;;;;5127406;27;20052;-73
2021/12/28 14:08:26;;;;;;;32.58;5.50;;;;;;;;;;5133355;27;20050;-73
2021/12/28 14:10:53;;;;;;;14.85;2.72;;;;;;;;;;5131074;27;20052;-72
2021/12/28 14:13:20;;;;;;;11.63;1.98;;;;;;;;;;5132758;27;20055;-73
2021/12/28 14:15:54;;;;;;;14.60;2.35;;;;;;;;;;5133240;27;20047;-72
2021/12/28 14:18:32;;;;;;;14.50;3.05;;;;;;;;;;5126421;27;20476;-72
2021/12/28 14:21:08;;;;;;;12.43;2.65;;;;;;;;;;5128726;27;20090;-71
2021/12/28 14:23:35;;;;;;;20.98;4.25;;;;;;;;;;5130695;27;20422;-71
2021/12/28 14:26:04;;;;;;;22.80;3.80;;;;;;;;;;5135486;27;20067;-71
2021/12/28 14:28:31;;;;;;;23.50;3.30;;;;;;;;;;5131814;27;20050;-71
2021/12/28 14:31:29;;;;;;;17.02;3.47;;;;;;;;;;5134971;27;20135;-71
2021/12/28 14:33:57;;;;;;;17.67;3.15;;;;;;;;;;5087655;27;20048;-73